createdAt,value
2022-08-19T00:04:37.569Z,62.83
2022-08-19T00:09:40.509Z,62.96
2022-08-19T00:14:43.470Z,63.14
2022-08-19T00:19:46.160Z,63.16
2022-08-19T00:24:50.705Z,63.20
2022-08-19T00:29:54.007Z,63.29
2022-08-19T00:34:56.930Z,63.48
2022-08-19T00:40:00.196Z,63.57
2022-08-19T00:45:09.871Z,64.08
2022-08-19T00:50:16.084Z,64.35
2022-08-19T00:55:24.780Z,64.55
2022-08-19T01:00:29.107Z,64.64
2022-08-19T01:05:32.341Z,64.73
2022-08-19T01:10:40.387Z,65.04
2022-08-19T01:15:47.510Z,65.36
2022-08-19T01:20:52.245Z,65.54
2022-08-19T01:25:56.973Z,65.70
2022-08-19T01:31:01.686Z,65.85
2022-08-19T01:36:14.491Z,66.16
2022-08-19T01:41:18.938Z,66.50
2022-08-19T01:46:24.995Z,66.59
2022-08-19T01:51:28.228Z,66.75
2022-08-19T01:56:31.565Z,66.88
2022-08-19T02:01:34.878Z,67.21
2022-08-19T02:06:38.441Z,67.49
2022-08-19T02:11:42.742Z,67.67
2022-08-19T02:16:45.545Z,67.92
2022-08-19T02:21:48.652Z,68.16
2022-08-19T02:26:52.316Z,68.06
2022-08-19T02:31:55.062Z,68.33
2022-08-19T02:37:01.799Z,68.37
2022-08-19T02:42:06.858Z,68.55
2022-08-19T02:47:11.008Z,68.72
2022-08-19T02:52:13.756Z,68.74
2022-08-19T02:57:16.558Z,68.94
2022-08-19T03:02:19.666Z,69.09
2022-08-19T03:07:22.727Z,69.03
2022-08-19T03:12:25.572Z,69.29
2022-08-19T03:17:28.378Z,69.29
2022-08-19T03:22:31.248Z,69.28
2022-08-19T03:27:34.342Z,69.61
2022-08-19T03:32:37.805Z,69.70
2022-08-19T03:37:48.161Z,69.82
2022-08-19T03:42:51.034Z,69.89
2022-08-19T03:47:54.791Z,70.10
2022-08-19T03:52:57.466Z,70.20
2022-08-19T03:58:00.311Z,70.28
2022-08-19T04:03:03.378Z,70.46
2022-08-19T04:08:09.682Z,70.40
2022-08-19T04:13:18.697Z,70.39
2022-08-19T04:18:21.362Z,70.46
2022-08-19T04:23:24.866Z,70.30
2022-08-19T04:28:28.052Z,70.39
2022-08-19T04:33:30.792Z,70.40
2022-08-19T04:38:33.478Z,70.32
2022-08-19T04:43:38.901Z,70.09
2022-08-19T04:48:49.268Z,70.05
2022-08-19T04:53:53.802Z,69.92
2022-08-19T04:58:57.985Z,69.85
2022-08-19T05:04:02.613Z,69.84
2022-08-19T05:09:06.715Z,69.67
2022-08-19T05:14:10.254Z,69.29
2022-08-19T05:19:31.653Z,69.03
2022-08-19T05:24:51.268Z,68.86
2022-08-19T05:30:01.289Z,68.83
2022-08-19T05:35:06.029Z,68.88
2022-08-19T05:40:10.414Z,68.77
2022-08-19T05:45:13.613Z,68.63
2022-08-19T05:50:18.610Z,68.64
2022-08-19T05:55:22.263Z,68.63
2022-08-19T06:00:25.192Z,68.57
2022-08-19T06:05:27.880Z,68.61
2022-08-19T06:10:31.127Z,68.59
2022-08-19T06:15:34.850Z,68.38
2022-08-19T06:20:54.895Z,67.87
2022-08-19T06:25:58.637Z,67.12
2022-08-19T06:31:07.537Z,66.84
2022-08-19T06:36:25.190Z,66.09
2022-08-19T06:41:29.625Z,65.14
2022-08-19T06:46:33.580Z,64.06
2022-08-19T06:51:42.494Z,62.88
2022-08-19T06:56:46.935Z,62.47
2022-08-19T07:01:52.625Z,61.66
2022-08-19T07:07:19.701Z,60.55
2022-08-19T07:12:24.003Z,59.62
2022-08-19T07:17:27.391Z,58.77
2022-08-19T07:22:30.388Z,58.13
2022-08-19T07:27:33.572Z,58.08
2022-08-19T07:32:36.598Z,56.83
2022-08-19T07:37:40.674Z,55.48
2022-08-19T07:42:44.361Z,54.72
2022-08-19T07:47:51.246Z,54.02
2022-08-19T07:52:54.221Z,53.73
2022-08-19T07:57:56.932Z,53.50
2022-08-19T08:02:59.963Z,52.98
2022-08-19T08:08:21.879Z,51.86
2022-08-19T08:13:30.550Z,51.17
2022-08-19T08:18:42.405Z,50.30
2022-08-19T08:23:45.218Z,49.97
2022-08-19T08:28:49.486Z,49.20
2022-08-19T08:33:53.018Z,48.56
2022-08-19T08:44:05.798Z,48.42
2022-08-19T08:49:28.784Z,47.73
2022-08-19T08:54:40.703Z,46.99
2022-08-19T08:59:57.045Z,45.70
2022-08-19T09:05:02.394Z,44.32
2022-08-19T09:10:25.931Z,43.99
2022-08-19T09:15:52.305Z,43.88
2022-08-19T09:20:55.381Z,43.73
2022-08-19T09:25:59.874Z,43.11
2022-08-19T09:31:02.722Z,42.61
2022-08-19T09:36:11.038Z,41.99
2022-08-19T09:41:17.357Z,42.28
2022-08-19T09:46:24.620Z,41.02
2022-08-19T09:51:30.107Z,41.20
2022-08-19T09:56:33.979Z,39.91
2022-08-19T10:01:37.109Z,38.96
2022-08-19T10:06:46.120Z,38.40
2022-08-19T10:11:54.862Z,37.16
2022-08-19T10:16:59.352Z,36.54
2022-08-19T10:22:10.061Z,36.44
2022-08-19T10:27:16.378Z,36.85
2022-08-19T10:32:19.243Z,36.14
2022-08-19T10:37:44.937Z,35.94
2022-08-19T10:42:59.927Z,35.05
2022-08-19T10:48:02.830Z,34.01
2022-08-19T10:53:11.351Z,34.19
2022-08-19T10:58:17.987Z,34.25
2022-08-19T11:03:21.861Z,34.80
2022-08-19T11:08:25.584Z,34.47
2022-08-19T11:13:30.420Z,34.86
2022-08-19T11:18:33.292Z,35.18
2022-08-19T11:23:36.057Z,34.37
2022-08-19T11:28:39.785Z,33.00
2022-08-19T11:33:47.232Z,32.70
2022-08-19T11:38:52.223Z,31.83
2022-08-19T11:43:56.236Z,31.45
2022-08-19T11:49:01.525Z,31.41
2022-08-19T11:54:06.346Z,31.00
2022-08-19T11:59:14.105Z,31.44
2022-08-19T12:04:17.506Z,31.31
2022-08-19T12:09:23.231Z,31.99
2022-08-19T12:14:26.068Z,32.02
2022-08-19T12:19:29.506Z,32.43
2022-08-19T12:24:33.841Z,32.36
2022-08-19T12:29:36.548Z,32.41
2022-08-19T12:34:40.472Z,32.62
2022-08-19T12:39:44.040Z,32.96
2022-08-19T12:44:47.138Z,33.07
2022-08-19T12:49:54.648Z,33.14
2022-08-19T12:54:59.152Z,33.35
2022-08-19T13:00:14.663Z,33.57
2022-08-19T13:05:23.840Z,33.01
2022-08-19T13:10:35.865Z,33.42
2022-08-19T13:15:42.085Z,32.32
2022-08-19T13:20:52.435Z,32.12
2022-08-19T13:26:00.787Z,32.70
2022-08-19T13:31:22.003Z,31.72
2022-08-19T13:36:24.853Z,31.87
2022-08-19T13:41:28.683Z,32.23
2022-08-19T13:46:31.709Z,31.84
2022-08-19T13:51:34.375Z,31.25
2022-08-19T13:56:45.499Z,31.53
2022-08-19T14:01:48.475Z,31.73
2022-08-19T14:06:51.262Z,31.48
2022-08-19T14:11:54.068Z,31.54
2022-08-19T14:16:56.847Z,31.77
2022-08-19T14:21:59.611Z,31.81
2022-08-19T14:27:04.325Z,31.97
2022-08-19T14:32:07.801Z,31.96
2022-08-19T14:37:18.879Z,31.55
2022-08-19T14:42:22.339Z,31.24
2022-08-19T14:47:25.084Z,31.51
2022-08-19T14:52:28.557Z,31.50
2022-08-19T14:57:31.359Z,31.40
2022-08-19T15:02:35.502Z,31.60
2022-08-19T15:07:39.381Z,31.27
2022-08-19T15:12:43.771Z,30.73
2022-08-19T15:17:47.531Z,29.81
2022-08-19T15:22:50.770Z,29.53
2022-08-19T15:27:54.182Z,28.80
2022-08-19T15:32:58.729Z,28.40
2022-08-19T15:38:01.849Z,28.06
2022-08-19T15:43:04.639Z,28.20
2022-08-19T15:48:07.846Z,28.59
2022-08-19T15:53:11.385Z,29.31
2022-08-19T15:58:34.728Z,29.57
2022-08-19T16:03:56.322Z,29.53
2022-08-19T16:09:04.424Z,29.19
2022-08-19T16:14:09.629Z,28.99
2022-08-19T16:19:15.726Z,30.07
2022-08-19T16:24:21.477Z,31.04
2022-08-19T16:29:33.406Z,31.66
2022-08-19T16:34:39.125Z,32.70
2022-08-19T16:39:43.741Z,32.98
2022-08-19T16:44:47.127Z,33.43
2022-08-19T16:49:53.464Z,34.31
2022-08-19T16:54:58.288Z,34.79
2022-08-19T17:00:05.787Z,35.18
2022-08-19T17:05:10.150Z,35.48
2022-08-19T17:10:12.907Z,35.84
2022-08-19T17:15:15.704Z,36.22
2022-08-19T17:20:19.507Z,36.55
2022-08-19T17:25:23.292Z,36.91
2022-08-19T17:30:26.384Z,37.36
2022-08-19T17:35:29.346Z,37.65
2022-08-19T17:40:32.525Z,38.09
2022-08-19T17:45:37.767Z,38.46
2022-08-19T17:50:41.842Z,38.74
2022-08-19T17:55:48.129Z,39.15
2022-08-19T18:00:53.792Z,39.72
2022-08-19T18:05:57.223Z,40.18
2022-08-19T18:11:00.747Z,40.26
2022-08-19T18:16:07.217Z,40.58
2022-08-19T18:21:10.425Z,40.98
2022-08-19T18:26:13.488Z,41.53
2022-08-19T18:31:17.080Z,41.81
2022-08-19T18:36:37.497Z,42.13
2022-08-19T18:42:01.449Z,42.55
2022-08-19T18:47:23.151Z,42.99
2022-08-19T18:52:27.299Z,43.08
2022-08-19T18:57:30.121Z,43.23
2022-08-19T19:02:39.048Z,43.32
2022-08-19T19:07:42.370Z,43.57
2022-08-19T19:12:45.207Z,43.80
2022-08-19T19:17:47.926Z,43.99
2022-08-19T19:22:50.805Z,44.25
2022-08-19T19:27:59.185Z,44.47
2022-08-19T19:33:02.510Z,44.79
2022-08-19T19:38:05.285Z,45.08
2022-08-19T19:43:08.805Z,45.26
2022-08-19T19:48:13.566Z,45.55
2022-08-19T19:53:16.409Z,45.70
2022-08-19T19:58:21.260Z,45.82
2022-08-19T20:03:31.826Z,45.98
2022-08-19T20:08:54.760Z,46.06
2022-08-19T20:14:01.134Z,46.06
2022-08-19T20:19:04.183Z,46.23
2022-08-19T20:24:09.817Z,46.13
2022-08-19T20:29:39.327Z,46.22
2022-08-19T20:34:39.319Z,45.98
2022-08-19T20:39:42.288Z,45.97
2022-08-19T20:44:45.430Z,45.87
2022-08-19T20:49:48.174Z,45.80
2022-08-19T20:54:50.873Z,45.74
2022-08-19T20:59:54.038Z,45.79
2022-08-19T21:04:59.064Z,45.69
2022-08-19T21:10:03.764Z,45.85
2022-08-19T21:15:08.634Z,45.82
2022-08-19T21:20:11.892Z,45.88
2022-08-19T21:25:16.468Z,45.78
2022-08-19T21:30:19.699Z,45.82
2022-08-19T21:35:23.826Z,45.88
2022-08-19T21:40:27.807Z,45.82
2022-08-19T21:45:30.664Z,45.81
2022-08-19T21:50:33.322Z,46.07
2022-08-19T21:55:36.126Z,46.14
2022-08-19T22:00:40.003Z,46.30
2022-08-19T22:05:43.748Z,46.34
2022-08-19T22:10:46.631Z,46.42
2022-08-19T22:15:51.999Z,46.73
2022-08-19T22:20:54.800Z,47.08
2022-08-19T22:25:57.503Z,47.19
2022-08-19T22:31:00.198Z,47.55
2022-08-19T22:36:09.611Z,47.86
2022-08-19T22:41:12.335Z,48.08
2022-08-19T22:46:17.282Z,48.25
2022-08-19T22:51:38.937Z,48.51
2022-08-19T22:56:42.390Z,49.17
2022-08-19T23:01:46.421Z,49.09
2022-08-19T23:06:49.198Z,49.43
2022-08-19T23:11:51.892Z,49.66
2022-08-19T23:16:58.745Z,51.65
2022-08-19T23:22:02.093Z,53.74
2022-08-19T23:27:23.552Z,54.74
2022-08-19T23:32:27.376Z,55.59
2022-08-19T23:37:30.153Z,56.25
2022-08-19T23:42:32.931Z,56.96
2022-08-19T23:47:35.961Z,57.72
2022-08-19T23:52:50.539Z,59.30
2022-08-19T23:57:54.059Z,60.60
